createdAt,value
2022-08-17T00:13:23.947Z,16.25
2022-08-17T00:18:57.571Z,16.19
2022-08-17T00:23:23.806Z,16.12
2022-08-17T00:28:23.801Z,16.03
2022-08-17T00:33:23.917Z,15.93
2022-08-17T00:38:23.790Z,15.87
2022-08-17T00:43:23.785Z,15.82
2022-08-17T00:48:29.046Z,15.77
2022-08-17T00:53:23.756Z,15.73
2022-08-17T00:58:30.407Z,15.63
2022-08-17T01:03:23.760Z,15.5
2022-08-17T01:08:23.739Z,15.39
2022-08-17T01:13:23.751Z,15.39
2022-08-17T01:18:23.736Z,15.39
2022-08-17T01:23:23.729Z,15.39
2022-08-17T01:28:33.257Z,15.38
2022-08-17T01:33:23.706Z,15.31
2022-08-17T01:38:27.028Z,15.25
2022-08-17T01:48:23.693Z,15.21
2022-08-17T01:53:23.686Z,15.14
2022-08-17T01:58:23.686Z,15.08
2022-08-17T02:03:23.680Z,15.1
2022-08-17T02:13:23.658Z,15
2022-08-17T02:43:23.634Z,14.63
2022-08-17T02:48:30.494Z,14.63
2022-08-17T02:58:34.438Z,14.59
2022-08-17T03:03:23.603Z,14.56
2022-08-17T03:08:23.609Z,14.54
2022-08-17T03:13:23.616Z,14.49
2022-08-17T03:18:25.214Z,14.42
2022-08-17T03:23:23.911Z,14.34
2022-08-17T03:28:23.603Z,14.34
2022-08-17T03:33:23.588Z,14.35
2022-08-17T03:38:23.567Z,14.33
2022-08-17T03:43:23.565Z,14.3
2022-08-17T03:48:23.556Z,14.33
2022-08-17T03:53:23.548Z,14.35
2022-08-17T03:58:23.545Z,14.36
2022-08-17T04:03:23.541Z,14.43
2022-08-17T04:08:23.561Z,14.48
2022-08-17T04:13:24.157Z,14.52
2022-08-17T04:18:23.530Z,14.54
2022-08-17T04:23:23.511Z,14.58
2022-08-17T04:28:23.492Z,14.65
2022-08-17T04:33:23.505Z,14.75
2022-08-17T04:38:23.502Z,14.9
2022-08-17T04:43:23.480Z,15.03
2022-08-17T04:48:23.485Z,15.16
2022-08-17T04:53:23.490Z,15.31
2022-08-17T04:58:23.479Z,15.39
2022-08-17T05:03:23.492Z,15.41
2022-08-17T05:08:23.444Z,15.67
2022-08-17T05:13:23.451Z,15.85
2022-08-17T05:18:24.493Z,15.99
2022-08-17T05:23:23.482Z,16.31
2022-08-17T05:28:24.292Z,16.86
2022-08-17T05:33:23.441Z,17.37
2022-08-17T05:38:23.404Z,17.88
2022-08-17T05:43:23.427Z,18.39
2022-08-17T05:48:35.360Z,18.95
2022-08-17T05:53:23.412Z,19.5
2022-08-17T05:58:23.390Z,19.83
2022-08-17T06:03:23.372Z,20.29
2022-08-17T06:08:23.388Z,20.97
2022-08-17T06:13:23.372Z,21.28
2022-08-17T06:18:23.405Z,21.7
2022-08-17T06:23:23.363Z,22.06
2022-08-17T06:28:23.348Z,22.45
2022-08-17T06:33:23.355Z,22.75
2022-08-17T06:38:35.029Z,22.95
2022-08-17T06:43:23.339Z,23.07
2022-08-17T06:48:23.328Z,23.37
2022-08-17T06:53:23.314Z,23.69
2022-08-17T06:58:23.307Z,23.95
2022-08-17T07:03:23.299Z,24.12
2022-08-17T07:08:26.487Z,24.32
2022-08-17T07:13:23.330Z,24.41
2022-08-17T07:18:23.282Z,24.69
2022-08-17T07:23:23.267Z,24.95
2022-08-17T07:28:23.285Z,25.17
2022-08-17T07:33:23.274Z,25.38
2022-08-17T07:38:24.600Z,25.52
2022-08-17T07:43:23.728Z,25.54
2022-08-17T07:48:23.233Z,25.65
2022-08-17T07:53:23.265Z,25.72
2022-08-17T07:58:23.225Z,25.78
2022-08-17T08:03:23.653Z,25.85
2022-08-17T08:08:23.231Z,26.02
2022-08-17T08:13:23.200Z,26.09
2022-08-17T08:18:39.686Z,26.06
2022-08-17T08:23:23.189Z,26.31
2022-08-17T08:28:23.210Z,26.56
2022-08-17T08:33:23.177Z,26.56
2022-08-17T08:38:23.174Z,26.79
2022-08-17T08:43:23.173Z,26.91
2022-08-17T08:48:53.580Z,27.01
2022-08-17T08:53:23.145Z,27.14
2022-08-17T08:58:30.749Z,27.27
2022-08-17T09:03:36.657Z,27.33
2022-08-17T09:08:23.130Z,27.38
2022-08-17T09:13:23.149Z,27.39
2022-08-17T09:18:59.505Z,27.52
2022-08-17T09:23:23.121Z,27.71
2022-08-17T09:28:23.094Z,27.87
2022-08-17T09:33:23.096Z,28.12
2022-08-17T09:38:23.091Z,28.24
2022-08-17T09:43:23.080Z,28.39
2022-08-17T09:48:23.084Z,28.49
2022-08-17T09:53:23.085Z,28.64
2022-08-17T09:58:23.530Z,28.67
2022-08-17T10:03:23.050Z,28.75
2022-08-17T10:08:23.061Z,28.86
2022-08-17T10:13:23.037Z,28.86
2022-08-17T10:18:23.049Z,29.2
2022-08-17T10:23:23.027Z,29.35
2022-08-17T10:28:27.356Z,29.54
2022-08-17T10:33:23.017Z,29.55
2022-08-17T10:38:24.698Z,29.66
2022-08-17T10:43:22.997Z,29.64
2022-08-17T10:48:23.000Z,29.49
2022-08-17T10:53:23.016Z,29.72
2022-08-17T10:58:22.985Z,29.87
2022-08-17T11:03:22.980Z,29.74
2022-08-17T11:08:22.979Z,29.84
2022-08-17T11:13:22.980Z,30.1
2022-08-17T11:18:22.961Z,30.14
2022-08-17T11:23:22.963Z,30.24
2022-08-17T11:28:22.943Z,30.42
2022-08-17T11:33:22.937Z,30.62
2022-08-17T11:38:22.945Z,31.17
2022-08-17T11:43:25.513Z,31.46
2022-08-17T11:48:28.056Z,31.31
2022-08-17T11:53:22.951Z,31.31
2022-08-17T11:58:22.921Z,31.3
2022-08-17T12:03:22.985Z,31.42
2022-08-17T12:08:22.906Z,31.44
2022-08-17T12:13:22.917Z,31.67
2022-08-17T12:18:22.893Z,31.78
2022-08-17T12:23:22.903Z,31.79
2022-08-17T12:28:23.242Z,31.71
2022-08-17T12:33:25.150Z,31.96
2022-08-17T12:38:28.184Z,31.77
2022-08-17T12:43:22.862Z,31.72
2022-08-17T12:48:22.881Z,31.77
2022-08-17T12:53:22.845Z,31.82
2022-08-17T12:58:22.846Z,32.04
2022-08-17T13:03:22.841Z,31.87
2022-08-17T13:08:22.841Z,31.88
2022-08-17T13:13:22.817Z,32.1
2022-08-17T13:18:22.817Z,32.22
2022-08-17T13:23:22.819Z,32.36
2022-08-17T13:28:30.790Z,32.23
2022-08-17T13:33:22.798Z,32.1
2022-08-17T13:38:22.807Z,32.1
2022-08-17T13:43:22.788Z,32.11
2022-08-17T13:48:22.789Z,32.24
2022-08-17T13:58:22.759Z,32.11
2022-08-17T14:03:22.766Z,32.1
2022-08-17T14:08:22.764Z,31.88
2022-08-17T14:23:22.736Z,31.53
2022-08-17T14:48:22.709Z,31.93
2022-08-17T14:53:22.701Z,31.62
2022-08-17T14:58:22.701Z,31.47
2022-08-17T15:03:22.720Z,31.35
2022-08-17T15:08:22.689Z,31.23
2022-08-17T15:13:22.692Z,31.25
2022-08-17T15:18:22.681Z,31.05
2022-08-17T15:23:22.673Z,30.88
2022-08-17T15:28:22.669Z,30.7
2022-08-17T15:33:22.677Z,30.59
2022-08-17T15:38:22.655Z,30.44
2022-08-17T15:43:27.229Z,30.39
2022-08-17T15:48:22.656Z,30.3
2022-08-17T15:53:22.633Z,30.24
2022-08-17T15:58:22.607Z,30.14
2022-08-17T16:03:47.232Z,30.02
2022-08-17T16:08:22.614Z,29.87
2022-08-17T16:18:22.619Z,29.77
2022-08-17T16:23:22.590Z,29.79
2022-08-17T16:28:22.593Z,29.78
2022-08-17T16:38:22.572Z,29.64
2022-08-17T16:43:22.564Z,29.59
2022-08-17T16:48:22.569Z,29.59
2022-08-17T16:58:22.549Z,29.54
2022-08-17T17:13:22.523Z,29.19
2022-08-17T17:18:22.525Z,29.08
2022-08-17T17:33:22.523Z,28.31
2022-08-17T17:38:22.501Z,28
2022-08-17T17:43:38.106Z,27.74
2022-08-17T17:48:22.509Z,27.47
2022-08-17T17:53:22.572Z,27.22
2022-08-17T17:58:22.473Z,26.98
2022-08-17T18:03:22.482Z,26.69
2022-08-17T18:08:24.402Z,26.55
2022-08-17T18:13:22.449Z,26.3
2022-08-17T18:18:22.447Z,26.05
2022-08-17T18:23:27.255Z,25.79
2022-08-17T18:28:22.434Z,25.57
2022-08-17T18:33:23.046Z,25.45
2022-08-17T18:38:22.426Z,25.38
2022-08-17T18:43:22.412Z,25.21
2022-08-17T18:48:22.404Z,25.16
2022-08-17T18:53:26.449Z,25.05
2022-08-17T18:58:22.395Z,24.89
2022-08-17T19:03:22.413Z,24.61
2022-08-17T19:08:22.386Z,24.37
2022-08-17T19:13:23.809Z,24.15
2022-08-17T19:18:22.376Z,23.95
2022-08-17T19:23:22.369Z,23.76
2022-08-17T19:28:22.853Z,23.58
2022-08-17T19:33:22.359Z,23.45
2022-08-17T19:38:22.340Z,23.3
2022-08-17T19:43:22.325Z,23.21
2022-08-17T19:48:22.331Z,23.21
2022-08-17T19:53:22.316Z,23.19
2022-08-17T19:58:22.305Z,23.17
2022-08-17T20:03:22.317Z,23.21
2022-08-17T20:08:22.295Z,23.22
2022-08-17T20:13:33.043Z,23.21
2022-08-17T20:18:22.283Z,23.15
2022-08-17T20:23:22.280Z,23.13
2022-08-17T20:28:22.298Z,23.1
2022-08-17T20:33:22.271Z,23.1
2022-08-17T20:38:22.259Z,23.13
2022-08-17T20:43:22.260Z,23.1
2022-08-17T20:48:37.227Z,23.08
2022-08-17T20:53:22.247Z,23.06
2022-08-17T20:58:22.246Z,23.03
2022-08-17T21:03:22.241Z,22.99
2022-08-17T21:08:22.229Z,22.94
2022-08-17T21:13:22.218Z,22.92
2022-08-17T21:18:22.192Z,22.91
2022-08-17T21:23:22.213Z,22.94
2022-08-17T21:28:22.183Z,23.01
2022-08-17T21:33:22.188Z,23.06
2022-08-17T21:38:22.187Z,23.04
2022-08-17T21:43:22.169Z,23.03
2022-08-17T21:48:22.170Z,23.03
2022-08-17T21:53:22.162Z,23.06
2022-08-17T21:58:22.157Z,23.06
2022-08-17T22:13:22.169Z,23.1
2022-08-17T22:18:22.128Z,23.22
2022-08-17T22:23:22.118Z,23.25
2022-08-17T22:28:22.115Z,23.21
2022-08-17T22:33:22.093Z,23.16
2022-08-17T22:38:22.101Z,23.1
2022-08-17T22:43:24.282Z,23.05
2022-08-17T22:48:22.084Z,23.01
2022-08-17T22:53:22.071Z,23
2022-08-17T22:58:22.059Z,23.07
2022-08-17T23:03:22.176Z,23.07
2022-08-17T23:08:22.039Z,23.1
2022-08-17T23:13:22.066Z,23.29
2022-08-17T23:18:22.052Z,23.36
2022-08-17T23:23:23.760Z,23.31
2022-08-17T23:28:22.026Z,23.29
2022-08-17T23:33:22.025Z,23.24
2022-08-17T23:38:22.014Z,22.86
2022-08-17T23:43:23.850Z,22.39
2022-08-17T23:48:28.761Z,21.79
2022-08-17T23:53:22.019Z,19.12
2022-08-17T23:58:21.995Z,18.19
